sensor_id;sensor_type;location;lat;lon;timestamp;P1;durP1;ratioP1;P2;durP2;ratioP2
57113;SDS011;42994;51.606;9.988;2023-04-10T00:01:51;19.80;;;13.77;;
57113;SDS011;42994;51.606;9.988;2023-04-10T00:04:18;21.95;;;14.80;;
57113;SDS011;42994;51.606;9.988;2023-04-10T00:06:46;21.95;;;14.73;;
57113;SDS011;42994;51.606;9.988;2023-04-10T00:09:13;24.05;;;15.10;;
57113;SDS011;42994;51.606;9.988;2023-04-10T00:11:39;24.73;;;15.45;;
57113;SDS011;42994;51.606;9.988;2023-04-10T00:14:06;23.90;;;15.20;;
57113;SDS011;42994;51.606;9.988;2023-04-10T00:16:34;23.35;;;14.35;;
57113;SDS011;42994;51.606;9.988;2023-04-10T00:19:00;25.00;;;15.38;;
57113;SDS011;42994;51.606;9.988;2023-04-10T00:21:27;22.40;;;15.02;;
57113;SDS011;42994;51.606;9.988;2023-04-10T00:23:54;23.05;;;14.88;;
57113;SDS011;42994;51.606;9.988;2023-04-10T00:26:20;23.55;;;15.05;;
57113;SDS011;42994;51.606;9.988;2023-04-10T00:28:48;22.50;;;14.68;;
57113;SDS011;42994;51.606;9.988;2023-04-10T00:31:14;21.42;;;14.95;;
57113;SDS011;42994;51.606;9.988;2023-04-10T00:33:42;22.70;;;14.20;;
57113;SDS011;42994;51.606;9.988;2023-04-10T00:36:09;23.23;;;15.05;;
57113;SDS011;42994;51.606;9.988;2023-04-10T00:38:36;23.17;;;15.23;;
57113;SDS011;42994;51.606;9.988;2023-04-10T00:41:03;21.30;;;13.75;;
57113;SDS011;42994;51.606;9.988;2023-04-10T00:43:30;23.42;;;14.50;;
57113;SDS011;42994;51.606;9.988;2023-04-10T00:45:57;21.95;;;14.93;;
57113;SDS011;42994;51.606;9.988;2023-04-10T00:48:24;24.38;;;14.65;;
57113;SDS011;42994;51.606;9.988;2023-04-10T00:50:53;21.13;;;13.35;;
57113;SDS011;42994;51.606;9.988;2023-04-10T00:53:20;19.35;;;13.15;;
57113;SDS011;42994;51.606;9.988;2023-04-10T00:55:46;20.60;;;13.10;;
57113;SDS011;42994;51.606;9.988;2023-04-10T00:58:14;22.48;;;14.60;;
57113;SDS011;42994;51.606;9.988;2023-04-10T01:00:41;20.08;;;13.68;;
57113;SDS011;42994;51.606;9.988;2023-04-10T01:03:08;21.10;;;14.65;;
57113;SDS011;42994;51.606;9.988;2023-04-10T01:05:38;20.92;;;14.35;;
57113;SDS011;42994;51.606;9.988;2023-04-10T01:08:15;16.58;;;12.23;;
57113;SDS011;42994;51.606;9.988;2023-04-10T01:10:50;21.40;;;14.18;;
57113;SDS011;42994;51.606;9.988;2023-04-10T01:13:26;20.20;;;12.48;;
57113;SDS011;42994;51.606;9.988;2023-04-10T01:16:00;22.33;;;14.23;;
57113;SDS011;42994;51.606;9.988;2023-04-10T01:18:33;20.48;;;13.13;;
57113;SDS011;42994;51.606;9.988;2023-04-10T01:21:06;21.95;;;13.65;;
57113;SDS011;42994;51.606;9.988;2023-04-10T01:26:31;22.10;;;14.27;;
57113;SDS011;42994;51.606;9.988;2023-04-10T01:29:09;20.73;;;13.00;;
57113;SDS011;42994;51.606;9.988;2023-04-10T01:31:45;18.73;;;12.80;;
57113;SDS011;42994;51.606;9.988;2023-04-10T01:34:18;19.33;;;13.65;;
57113;SDS011;42994;51.606;9.988;2023-04-10T01:36:48;18.98;;;12.88;;
57113;SDS011;42994;51.606;9.988;2023-04-10T01:39:17;18.13;;;12.30;;
57113;SDS011;42994;51.606;9.988;2023-04-10T01:41:46;22.30;;;12.95;;
57113;SDS011;42994;51.606;9.988;2023-04-10T01:44:35;22.02;;;13.75;;
57113;SDS011;42994;51.606;9.988;2023-04-10T01:47:06;20.67;;;12.95;;
57113;SDS011;42994;51.606;9.988;2023-04-10T01:49:33;17.92;;;11.90;;
57113;SDS011;42994;51.606;9.988;2023-04-10T01:52:02;19.48;;;12.90;;
57113;SDS011;42994;51.606;9.988;2023-04-10T01:54:32;19.33;;;12.75;;
57113;SDS011;42994;51.606;9.988;2023-04-10T01:57:01;24.20;;;15.82;;
57113;SDS011;42994;51.606;9.988;2023-04-10T01:59:37;22.38;;;13.07;;
57113;SDS011;42994;51.606;9.988;2023-04-10T02:02:04;21.60;;;14.35;;
57113;SDS011;42994;51.606;9.988;2023-04-10T02:04:31;19.65;;;13.63;;
57113;SDS011;42994;51.606;9.988;2023-04-10T02:07:01;21.00;;;13.40;;
57113;SDS011;42994;51.606;9.988;2023-04-10T02:09:31;20.52;;;12.27;;
57113;SDS011;42994;51.606;9.988;2023-04-10T02:12:06;19.80;;;13.18;;
57113;SDS011;42994;51.606;9.988;2023-04-10T02:14:36;20.00;;;12.73;;
57113;SDS011;42994;51.606;9.988;2023-04-10T02:17:08;18.45;;;12.13;;
57113;SDS011;42994;51.606;9.988;2023-04-10T02:19:36;22.70;;;14.43;;
57113;SDS011;42994;51.606;9.988;2023-04-10T02:22:04;23.17;;;15.07;;
57113;SDS011;42994;51.606;9.988;2023-04-10T02:24:32;21.10;;;13.68;;
57113;SDS011;42994;51.606;9.988;2023-04-10T02:27:00;22.80;;;13.40;;
57113;SDS011;42994;51.606;9.988;2023-04-10T02:29:26;20.10;;;12.68;;
57113;SDS011;42994;51.606;9.988;2023-04-10T02:31:54;29.13;;;13.85;;
57113;SDS011;42994;51.606;9.988;2023-04-10T02:34:21;22.25;;;13.65;;
57113;SDS011;42994;51.606;9.988;2023-04-10T02:36:49;19.48;;;12.75;;
57113;SDS011;42994;51.606;9.988;2023-04-10T02:39:17;21.95;;;14.60;;
57113;SDS011;42994;51.606;9.988;2023-04-10T02:41:47;20.88;;;13.55;;
57113;SDS011;42994;51.606;9.988;2023-04-10T02:44:13;21.40;;;13.85;;
57113;SDS011;42994;51.606;9.988;2023-04-10T02:46:41;23.15;;;14.23;;
57113;SDS011;42994;51.606;9.988;2023-04-10T02:49:10;24.52;;;15.63;;
57113;SDS011;42994;51.606;9.988;2023-04-10T02:51:37;29.63;;;15.93;;
57113;SDS011;42994;51.606;9.988;2023-04-10T02:54:03;25.85;;;15.40;;
57113;SDS011;42994;51.606;9.988;2023-04-10T02:56:32;28.00;;;16.65;;
57113;SDS011;42994;51.606;9.988;2023-04-10T02:58:59;26.48;;;15.40;;
57113;SDS011;42994;51.606;9.988;2023-04-10T03:01:26;26.35;;;15.30;;
57113;SDS011;42994;51.606;9.988;2023-04-10T03:03:55;23.50;;;14.90;;
57113;SDS011;42994;51.606;9.988;2023-04-10T03:06:30;24.30;;;15.27;;
57113;SDS011;42994;51.606;9.988;2023-04-10T03:08:57;25.02;;;14.43;;
57113;SDS011;42994;51.606;9.988;2023-04-10T03:11:25;21.30;;;14.70;;
57113;SDS011;42994;51.606;9.988;2023-04-10T03:13:51;23.75;;;13.57;;
57113;SDS011;42994;51.606;9.988;2023-04-10T03:16:18;24.42;;;14.75;;
57113;SDS011;42994;51.606;9.988;2023-04-10T03:18:46;21.60;;;13.70;;
57113;SDS011;42994;51.606;9.988;2023-04-10T03:21:12;22.90;;;14.68;;
57113;SDS011;42994;51.606;9.988;2023-04-10T03:23:41;21.48;;;14.50;;
57113;SDS011;42994;51.606;9.988;2023-04-10T03:26:09;24.45;;;15.43;;
57113;SDS011;42994;51.606;9.988;2023-04-10T03:28:36;27.33;;;16.23;;
57113;SDS011;42994;51.606;9.988;2023-04-10T03:31:04;24.30;;;15.88;;
57113;SDS011;42994;51.606;9.988;2023-04-10T03:33:33;24.42;;;14.52;;
57113;SDS011;42994;51.606;9.988;2023-04-10T03:36:00;24.52;;;15.98;;
57113;SDS011;42994;51.606;9.988;2023-04-10T03:38:27;27.13;;;15.90;;
57113;SDS011;42994;51.606;9.988;2023-04-10T03:41:02;25.88;;;15.77;;
57113;SDS011;42994;51.606;9.988;2023-04-10T03:43:32;25.92;;;15.40;;
57113;SDS011;42994;51.606;9.988;2023-04-10T03:46:09;28.67;;;15.52;;
57113;SDS011;42994;51.606;9.988;2023-04-10T03:48:42;26.50;;;16.30;;
57113;SDS011;42994;51.606;9.988;2023-04-10T03:51:25;24.33;;;15.52;;
57113;SDS011;42994;51.606;9.988;2023-04-10T03:53:57;25.73;;;15.80;;
57113;SDS011;42994;51.606;9.988;2023-04-10T03:58:58;28.05;;;15.65;;
57113;SDS011;42994;51.606;9.988;2023-04-10T04:01:39;26.48;;;15.23;;
57113;SDS011;42994;51.606;9.988;2023-04-10T04:04:12;24.73;;;15.35;;
57113;SDS011;42994;51.606;9.988;2023-04-10T04:06:57;32.35;;;16.77;;
57113;SDS011;42994;51.606;9.988;2023-04-10T04:09:58;27.83;;;17.15;;
57113;SDS011;42994;51.606;9.988;2023-04-10T04:12:52;25.70;;;17.25;;
57113;SDS011;42994;51.606;9.988;2023-04-10T04:15:29;28.20;;;18.27;;
57113;SDS011;42994;51.606;9.988;2023-04-10T04:18:22;34.05;;;18.48;;
57113;SDS011;42994;51.606;9.988;2023-04-10T04:21:17;31.80;;;17.40;;
57113;SDS011;42994;51.606;9.988;2023-04-10T04:24:01;37.40;;;19.42;;
57113;SDS011;42994;51.606;9.988;2023-04-10T04:26:48;29.48;;;17.77;;
57113;SDS011;42994;51.606;9.988;2023-04-10T04:32:46;29.95;;;18.73;;
57113;SDS011;42994;51.606;9.988;2023-04-10T04:35:55;30.90;;;18.13;;
57113;SDS011;42994;51.606;9.988;2023-04-10T04:38:38;36.67;;;19.63;;
57113;SDS011;42994;51.606;9.988;2023-04-10T04:41:26;32.97;;;17.38;;
57113;SDS011;42994;51.606;9.988;2023-04-10T04:44:37;30.38;;;17.52;;
57113;SDS011;42994;51.606;9.988;2023-04-10T04:47:40;28.77;;;16.58;;
57113;SDS011;42994;51.606;9.988;2023-04-10T04:50:27;25.85;;;15.75;;
57113;SDS011;42994;51.606;9.988;2023-04-10T04:53:17;32.30;;;17.77;;
57113;SDS011;42994;51.606;9.988;2023-04-10T04:56:03;25.48;;;16.25;;
57113;SDS011;42994;51.606;9.988;2023-04-10T04:58:42;29.17;;;16.75;;
57113;SDS011;42994;51.606;9.988;2023-04-10T05:01:47;27.10;;;16.35;;
57113;SDS011;42994;51.606;9.988;2023-04-10T05:04:34;28.58;;;15.52;;
57113;SDS011;42994;51.606;9.988;2023-04-10T05:07:22;22.70;;;14.90;;
57113;SDS011;42994;51.606;9.988;2023-04-10T05:10:11;24.80;;;15.07;;
57113;SDS011;42994;51.606;9.988;2023-04-10T05:13:06;21.92;;;13.57;;
57113;SDS011;42994;51.606;9.988;2023-04-10T05:16:13;23.35;;;13.40;;
57113;SDS011;42994;51.606;9.988;2023-04-10T05:19:15;23.40;;;13.77;;
57113;SDS011;42994;51.606;9.988;2023-04-10T05:22:15;24.23;;;14.23;;
57113;SDS011;42994;51.606;9.988;2023-04-10T05:25:17;26.13;;;15.48;;
57113;SDS011;42994;51.606;9.988;2023-04-10T05:28:04;26.67;;;15.50;;
57113;SDS011;42994;51.606;9.988;2023-04-10T05:30:48;25.88;;;15.13;;
57113;SDS011;42994;51.606;9.988;2023-04-10T05:34:04;27.80;;;16.80;;
57113;SDS011;42994;51.606;9.988;2023-04-10T05:36:51;27.88;;;16.45;;
57113;SDS011;42994;51.606;9.988;2023-04-10T05:39:38;26.83;;;16.67;;
57113;SDS011;42994;51.606;9.988;2023-04-10T05:42:36;30.25;;;19.10;;
57113;SDS011;42994;51.606;9.988;2023-04-10T05:45:13;31.23;;;18.88;;
57113;SDS011;42994;51.606;9.988;2023-04-10T05:47:56;31.90;;;17.73;;
57113;SDS011;42994;51.606;9.988;2023-04-10T05:50:45;32.15;;;18.20;;
57113;SDS011;42994;51.606;9.988;2023-04-10T05:53:27;30.67;;;17.77;;
57113;SDS011;42994;51.606;9.988;2023-04-10T05:56:18;31.75;;;18.33;;
57113;SDS011;42994;51.606;9.988;2023-04-10T05:59:08;34.50;;;18.65;;
57113;SDS011;42994;51.606;9.988;2023-04-10T06:02:19;28.00;;;17.65;;
57113;SDS011;42994;51.606;9.988;2023-04-10T06:04:51;31.23;;;18.20;;
57113;SDS011;42994;51.606;9.988;2023-04-10T06:07:28;33.25;;;18.83;;
57113;SDS011;42994;51.606;9.988;2023-04-10T06:09:56;31.05;;;18.50;;
57113;SDS011;42994;51.606;9.988;2023-04-10T06:12:24;30.10;;;18.83;;
57113;SDS011;42994;51.606;9.988;2023-04-10T06:14:54;32.70;;;19.75;;
57113;SDS011;42994;51.606;9.988;2023-04-10T06:17:40;33.10;;;18.83;;
57113;SDS011;42994;51.606;9.988;2023-04-10T06:20:11;32.65;;;19.55;;
57113;SDS011;42994;51.606;9.988;2023-04-10T06:22:52;33.75;;;19.95;;
57113;SDS011;42994;51.606;9.988;2023-04-10T06:25:23;29.15;;;19.05;;
57113;SDS011;42994;51.606;9.988;2023-04-10T06:28:02;31.73;;;19.13;;
57113;SDS011;42994;51.606;9.988;2023-04-10T06:30:38;28.90;;;17.92;;
57113;SDS011;42994;51.606;9.988;2023-04-10T06:33:10;24.88;;;15.63;;
57113;SDS011;42994;51.606;9.988;2023-04-10T06:35:52;24.33;;;15.88;;
57113;SDS011;42994;51.606;9.988;2023-04-10T06:38:19;19.60;;;13.38;;
57113;SDS011;42994;51.606;9.988;2023-04-10T06:40:54;21.35;;;13.70;;
57113;SDS011;42994;51.606;9.988;2023-04-10T06:43:43;21.55;;;14.02;;
57113;SDS011;42994;51.606;9.988;2023-04-10T06:46:33;22.05;;;13.88;;
57113;SDS011;42994;51.606;9.988;2023-04-10T06:49:03;24.55;;;14.57;;
57113;SDS011;42994;51.606;9.988;2023-04-10T06:51:37;22.70;;;14.02;;
57113;SDS011;42994;51.606;9.988;2023-04-10T06:54:04;20.05;;;13.35;;
57113;SDS011;42994;51.606;9.988;2023-04-10T06:56:31;21.08;;;14.25;;
57113;SDS011;42994;51.606;9.988;2023-04-10T06:58:59;20.05;;;13.73;;
57113;SDS011;42994;51.606;9.988;2023-04-10T07:01:25;20.90;;;13.82;;
57113;SDS011;42994;51.606;9.988;2023-04-10T07:03:52;20.25;;;13.73;;
57113;SDS011;42994;51.606;9.988;2023-04-10T07:06:20;22.38;;;14.45;;
57113;SDS011;42994;51.606;9.988;2023-04-10T07:08:47;22.58;;;13.70;;
57113;SDS011;42994;51.606;9.988;2023-04-10T07:11:23;18.38;;;12.88;;
57113;SDS011;42994;51.606;9.988;2023-04-10T07:13:49;21.27;;;14.15;;
57113;SDS011;42994;51.606;9.988;2023-04-10T07:16:19;18.75;;;12.25;;
57113;SDS011;42994;51.606;9.988;2023-04-10T07:18:48;23.42;;;14.20;;
57113;SDS011;42994;51.606;9.988;2023-04-10T07:21:15;19.63;;;13.60;;
57113;SDS011;42994;51.606;9.988;2023-04-10T07:23:41;19.80;;;13.30;;
57113;SDS011;42994;51.606;9.988;2023-04-10T07:26:08;21.38;;;13.38;;
57113;SDS011;42994;51.606;9.988;2023-04-10T07:28:35;18.58;;;13.00;;
57113;SDS011;42994;51.606;9.988;2023-04-10T07:31:02;19.77;;;12.77;;
57113;SDS011;42994;51.606;9.988;2023-04-10T07:33:30;22.10;;;13.65;;
57113;SDS011;42994;51.606;9.988;2023-04-10T07:36:00;17.90;;;12.10;;
57113;SDS011;42994;51.606;9.988;2023-04-10T07:38:27;19.65;;;12.65;;
57113;SDS011;42994;51.606;9.988;2023-04-10T07:40:57;20.45;;;12.77;;
57113;SDS011;42994;51.606;9.988;2023-04-10T07:43:24;18.35;;;12.65;;
57113;SDS011;42994;51.606;9.988;2023-04-10T07:45:51;17.90;;;12.40;;
57113;SDS011;42994;51.606;9.988;2023-04-10T07:48:18;17.08;;;12.48;;
57113;SDS011;42994;51.606;9.988;2023-04-10T07:50:47;20.15;;;11.50;;
57113;SDS011;42994;51.606;9.988;2023-04-10T07:53:14;16.60;;;11.95;;
57113;SDS011;42994;51.606;9.988;2023-04-10T07:55:41;17.45;;;11.90;;
57113;SDS011;42994;51.606;9.988;2023-04-10T07:58:09;18.33;;;11.95;;
57113;SDS011;42994;51.606;9.988;2023-04-10T08:00:35;15.88;;;11.57;;
57113;SDS011;42994;51.606;9.988;2023-04-10T08:03:02;18.17;;;11.88;;
57113;SDS011;42994;51.606;9.988;2023-04-10T08:05:30;14.88;;;11.30;;
57113;SDS011;42994;51.606;9.988;2023-04-10T08:07:58;16.25;;;12.00;;
57113;SDS011;42994;51.606;9.988;2023-04-10T08:10:24;15.50;;;11.15;;
57113;SDS011;42994;51.606;9.988;2023-04-10T08:12:51;17.17;;;12.32;;
57113;SDS011;42994;51.606;9.988;2023-04-10T08:15:17;18.67;;;11.80;;
57113;SDS011;42994;51.606;9.988;2023-04-10T08:17:44;16.35;;;11.23;;
57113;SDS011;42994;51.606;9.988;2023-04-10T08:20:14;17.45;;;12.07;;
57113;SDS011;42994;51.606;9.988;2023-04-10T08:22:42;16.13;;;11.27;;
57113;SDS011;42994;51.606;9.988;2023-04-10T08:25:11;18.00;;;11.45;;
57113;SDS011;42994;51.606;9.988;2023-04-10T08:27:43;15.15;;;11.75;;
57113;SDS011;42994;51.606;9.988;2023-04-10T08:30:12;15.25;;;11.07;;
57113;SDS011;42994;51.606;9.988;2023-04-10T08:32:39;16.02;;;11.15;;
57113;SDS011;42994;51.606;9.988;2023-04-10T08:35:13;17.10;;;11.70;;
57113;SDS011;42994;51.606;9.988;2023-04-10T08:37:44;15.88;;;11.10;;
57113;SDS011;42994;51.606;9.988;2023-04-10T08:40:19;15.15;;;11.35;;
57113;SDS011;42994;51.606;9.988;2023-04-10T08:42:48;13.93;;;11.02;;
57113;SDS011;42994;51.606;9.988;2023-04-10T08:45:20;15.50;;;10.95;;
57113;SDS011;42994;51.606;9.988;2023-04-10T08:47:54;15.23;;;10.48;;
57113;SDS011;42994;51.606;9.988;2023-04-10T08:50:33;14.02;;;10.50;;
57113;SDS011;42994;51.606;9.988;2023-04-10T08:53:07;15.25;;;10.75;;
57113;SDS011;42994;51.606;9.988;2023-04-10T08:55:51;15.45;;;10.15;;
57113;SDS011;42994;51.606;9.988;2023-04-10T08:58:24;16.17;;;10.32;;
57113;SDS011;42994;51.606;9.988;2023-04-10T09:00:51;14.55;;;10.57;;
57113;SDS011;42994;51.606;9.988;2023-04-10T09:03:20;12.07;;;9.35;;
57113;SDS011;42994;51.606;9.988;2023-04-10T09:05:53;12.60;;;9.73;;
57113;SDS011;42994;51.606;9.988;2023-04-10T09:08:24;12.77;;;10.25;;
57113;SDS011;42994;51.606;9.988;2023-04-10T09:10:55;15.60;;;10.82;;
57113;SDS011;42994;51.606;9.988;2023-04-10T09:13:33;13.45;;;10.25;;
57113;SDS011;42994;51.606;9.988;2023-04-10T09:16:02;13.10;;;10.25;;
57113;SDS011;42994;51.606;9.988;2023-04-10T09:18:41;11.65;;;9.10;;
57113;SDS011;42994;51.606;9.988;2023-04-10T09:21:12;13.32;;;9.88;;
57113;SDS011;42994;51.606;9.988;2023-04-10T09:23:41;10.80;;;9.45;;
57113;SDS011;42994;51.606;9.988;2023-04-10T09:26:29;12.57;;;10.55;;
57113;SDS011;42994;51.606;9.988;2023-04-10T09:28:59;13.80;;;10.18;;
57113;SDS011;42994;51.606;9.988;2023-04-10T09:31:31;11.98;;;8.60;;
57113;SDS011;42994;51.606;9.988;2023-04-10T09:34:08;12.35;;;9.50;;
57113;SDS011;42994;51.606;9.988;2023-04-10T09:36:40;12.85;;;8.82;;
57113;SDS011;42994;51.606;9.988;2023-04-10T09:39:10;12.07;;;9.95;;
57113;SDS011;42994;51.606;9.988;2023-04-10T09:41:47;11.68;;;9.23;;
57113;SDS011;42994;51.606;9.988;2023-04-10T09:44:15;13.95;;;9.88;;
57113;SDS011;42994;51.606;9.988;2023-04-10T09:46:43;11.13;;;9.05;;
57113;SDS011;42994;51.606;9.988;2023-04-10T09:49:10;11.35;;;8.80;;
57113;SDS011;42994;51.606;9.988;2023-04-10T09:51:37;11.07;;;8.20;;
57113;SDS011;42994;51.606;9.988;2023-04-10T09:54:03;15.40;;;9.27;;
57113;SDS011;42994;51.606;9.988;2023-04-10T09:56:30;14.57;;;9.35;;
57113;SDS011;42994;51.606;9.988;2023-04-10T09:59:03;11.50;;;8.93;;
57113;SDS011;42994;51.606;9.988;2023-04-10T10:01:32;10.38;;;8.50;;
57113;SDS011;42994;51.606;9.988;2023-04-10T10:04:00;11.27;;;8.68;;
57113;SDS011;42994;51.606;9.988;2023-04-10T10:06:28;10.88;;;9.02;;
57113;SDS011;42994;51.606;9.988;2023-04-10T10:09:00;13.48;;;9.13;;
57113;SDS011;42994;51.606;9.988;2023-04-10T10:11:28;8.80;;;7.90;;
57113;SDS011;42994;51.606;9.988;2023-04-10T10:13:58;9.40;;;7.97;;
57113;SDS011;42994;51.606;9.988;2023-04-10T10:16:31;8.90;;;7.15;;
57113;SDS011;42994;51.606;9.988;2023-04-10T10:19:03;9.23;;;7.07;;
57113;SDS011;42994;51.606;9.988;2023-04-10T10:21:35;8.55;;;7.22;;
57113;SDS011;42994;51.606;9.988;2023-04-10T10:24:06;11.25;;;7.72;;
57113;SDS011;42994;51.606;9.988;2023-04-10T10:26:34;10.18;;;8.32;;
57113;SDS011;42994;51.606;9.988;2023-04-10T10:29:04;7.55;;;6.65;;
57113;SDS011;42994;51.606;9.988;2023-04-10T10:31:38;8.43;;;7.00;;
57113;SDS011;42994;51.606;9.988;2023-04-10T10:34:05;7.05;;;6.28;;
57113;SDS011;42994;51.606;9.988;2023-04-10T10:36:33;9.00;;;6.95;;
57113;SDS011;42994;51.606;9.988;2023-04-10T10:39:13;7.97;;;6.80;;
57113;SDS011;42994;51.606;9.988;2023-04-10T10:41:53;8.27;;;6.80;;
57113;SDS011;42994;51.606;9.988;2023-04-10T10:44:28;7.50;;;6.10;;
57113;SDS011;42994;51.606;9.988;2023-04-10T10:47:06;8.27;;;7.43;;
57113;SDS011;42994;51.606;9.988;2023-04-10T10:49:55;9.50;;;7.00;;
57113;SDS011;42994;51.606;9.988;2023-04-10T10:52:35;9.00;;;7.68;;
57113;SDS011;42994;51.606;9.988;2023-04-10T10:57:57;8.60;;;7.32;;
57113;SDS011;42994;51.606;9.988;2023-04-10T11:00:26;10.60;;;8.25;;
57113;SDS011;42994;51.606;9.988;2023-04-10T11:03:29;10.52;;;7.57;;
57113;SDS011;42994;51.606;9.988;2023-04-10T11:05:57;14.43;;;7.63;;
57113;SDS011;42994;51.606;9.988;2023-04-10T11:08:34;7.80;;;7.00;;
57113;SDS011;42994;51.606;9.988;2023-04-10T11:11:04;8.88;;;7.28;;
57113;SDS011;42994;51.606;9.988;2023-04-10T11:13:32;8.02;;;7.05;;
57113;SDS011;42994;51.606;9.988;2023-04-10T11:16:00;9.05;;;7.38;;
57113;SDS011;42994;51.606;9.988;2023-04-10T11:21:28;9.73;;;7.68;;
57113;SDS011;42994;51.606;9.988;2023-04-10T11:24:03;9.50;;;7.43;;
57113;SDS011;42994;51.606;9.988;2023-04-10T11:26:37;8.05;;;6.72;;
57113;SDS011;42994;51.606;9.988;2023-04-10T11:29:05;7.82;;;6.72;;
57113;SDS011;42994;51.606;9.988;2023-04-10T11:31:54;8.38;;;6.55;;
57113;SDS011;42994;51.606;9.988;2023-04-10T11:34:23;7.35;;;6.35;;
57113;SDS011;42994;51.606;9.988;2023-04-10T11:36:51;7.20;;;6.13;;
57113;SDS011;42994;51.606;9.988;2023-04-10T11:39:20;8.52;;;6.75;;
57113;SDS011;42994;51.606;9.988;2023-04-10T11:41:47;8.43;;;6.05;;
57113;SDS011;42994;51.606;9.988;2023-04-10T11:44:15;7.95;;;6.63;;
57113;SDS011;42994;51.606;9.988;2023-04-10T11:46:45;8.35;;;6.65;;
57113;SDS011;42994;51.606;9.988;2023-04-10T11:49:16;7.50;;;6.22;;
57113;SDS011;42994;51.606;9.988;2023-04-10T11:51:46;8.07;;;6.57;;
57113;SDS011;42994;51.606;9.988;2023-04-10T11:54:14;7.03;;;6.03;;
57113;SDS011;42994;51.606;9.988;2023-04-10T11:56:45;7.93;;;6.57;;
57113;SDS011;42994;51.606;9.988;2023-04-10T11:59:22;7.22;;;5.40;;
57113;SDS011;42994;51.606;9.988;2023-04-10T12:01:49;5.72;;;5.07;;
57113;SDS011;42994;51.606;9.988;2023-04-10T12:04:18;6.03;;;5.43;;
57113;SDS011;42994;51.606;9.988;2023-04-10T12:06:47;6.53;;;4.97;;
57113;SDS011;42994;51.606;9.988;2023-04-10T12:09:16;7.10;;;5.53;;
57113;SDS011;42994;51.606;9.988;2023-04-10T12:11:47;6.90;;;5.63;;
57113;SDS011;42994;51.606;9.988;2023-04-10T12:14:16;5.82;;;5.18;;
57113;SDS011;42994;51.606;9.988;2023-04-10T12:16:46;6.80;;;5.68;;
57113;SDS011;42994;51.606;9.988;2023-04-10T12:19:13;15.45;;;6.40;;
57113;SDS011;42994;51.606;9.988;2023-04-10T12:21:42;6.47;;;5.78;;
57113;SDS011;42994;51.606;9.988;2023-04-10T12:24:11;7.03;;;5.45;;
57113;SDS011;42994;51.606;9.988;2023-04-10T12:26:45;7.63;;;4.80;;
57113;SDS011;42994;51.606;9.988;2023-04-10T12:29:14;4.85;;;4.20;;
57113;SDS011;42994;51.606;9.988;2023-04-10T12:31:40;6.15;;;5.00;;
57113;SDS011;42994;51.606;9.988;2023-04-10T12:34:07;5.45;;;4.82;;
57113;SDS011;42994;51.606;9.988;2023-04-10T12:36:37;6.35;;;5.55;;
57113;SDS011;42994;51.606;9.988;2023-04-10T12:39:20;5.13;;;4.63;;
57113;SDS011;42994;51.606;9.988;2023-04-10T12:41:51;5.25;;;4.63;;
57113;SDS011;42994;51.606;9.988;2023-04-10T12:44:18;6.20;;;4.13;;
57113;SDS011;42994;51.606;9.988;2023-04-10T12:46:44;5.07;;;4.43;;
57113;SDS011;42994;51.606;9.988;2023-04-10T12:49:12;5.55;;;4.30;;
57113;SDS011;42994;51.606;9.988;2023-04-10T12:51:43;3.97;;;3.60;;
57113;SDS011;42994;51.606;9.988;2023-04-10T12:54:27;4.75;;;3.97;;
57113;SDS011;42994;51.606;9.988;2023-04-10T12:56:55;5.32;;;4.35;;
57113;SDS011;42994;51.606;9.988;2023-04-10T12:59:22;4.47;;;3.88;;
57113;SDS011;42994;51.606;9.988;2023-04-10T13:01:52;4.68;;;3.85;;
57113;SDS011;42994;51.606;9.988;2023-04-10T13:04:18;5.38;;;3.83;;
57113;SDS011;42994;51.606;9.988;2023-04-10T13:06:46;5.50;;;4.00;;
57113;SDS011;42994;51.606;9.988;2023-04-10T13:09:16;6.03;;;4.25;;
57113;SDS011;42994;51.606;9.988;2023-04-10T13:11:44;4.22;;;3.72;;
57113;SDS011;42994;51.606;9.988;2023-04-10T13:14:14;4.00;;;3.15;;
57113;SDS011;42994;51.606;9.988;2023-04-10T13:16:41;3.38;;;3.08;;
57113;SDS011;42994;51.606;9.988;2023-04-10T13:19:08;3.88;;;3.17;;
57113;SDS011;42994;51.606;9.988;2023-04-10T13:21:35;4.15;;;3.15;;
57113;SDS011;42994;51.606;9.988;2023-04-10T13:24:01;3.08;;;2.78;;
57113;SDS011;42994;51.606;9.988;2023-04-10T13:26:28;2.95;;;2.60;;
57113;SDS011;42994;51.606;9.988;2023-04-10T13:28:58;3.58;;;3.05;;
57113;SDS011;42994;51.606;9.988;2023-04-10T13:31:25;3.97;;;3.47;;
57113;SDS011;42994;51.606;9.988;2023-04-10T13:33:51;5.07;;;3.65;;
57113;SDS011;42994;51.606;9.988;2023-04-10T13:36:18;4.72;;;3.15;;
57113;SDS011;42994;51.606;9.988;2023-04-10T13:38:44;3.58;;;3.00;;
57113;SDS011;42994;51.606;9.988;2023-04-10T13:41:13;3.95;;;3.05;;
57113;SDS011;42994;51.606;9.988;2023-04-10T13:43:39;6.20;;;2.85;;
57113;SDS011;42994;51.606;9.988;2023-04-10T13:46:07;4.18;;;3.28;;
57113;SDS011;42994;51.606;9.988;2023-04-10T13:48:34;5.32;;;3.42;;
57113;SDS011;42994;51.606;9.988;2023-04-10T13:51:05;6.22;;;3.80;;
57113;SDS011;42994;51.606;9.988;2023-04-10T13:53:32;3.75;;;3.45;;
57113;SDS011;42994;51.606;9.988;2023-04-10T13:55:58;5.35;;;3.80;;
57113;SDS011;42994;51.606;9.988;2023-04-10T13:58:25;4.35;;;3.83;;
57113;SDS011;42994;51.606;9.988;2023-04-10T14:00:55;4.00;;;3.60;;
57113;SDS011;42994;51.606;9.988;2023-04-10T14:03:23;4.70;;;4.20;;
57113;SDS011;42994;51.606;9.988;2023-04-10T14:05:50;5.10;;;4.60;;
57113;SDS011;42994;51.606;9.988;2023-04-10T14:08:17;4.88;;;4.32;;
57113;SDS011;42994;51.606;9.988;2023-04-10T14:10:44;4.45;;;4.05;;
57113;SDS011;42994;51.606;9.988;2023-04-10T14:13:14;4.47;;;3.80;;
57113;SDS011;42994;51.606;9.988;2023-04-10T14:15:43;6.40;;;4.18;;
57113;SDS011;42994;51.606;9.988;2023-04-10T14:18:10;3.58;;;3.28;;
57113;SDS011;42994;51.606;9.988;2023-04-10T14:20:38;4.50;;;3.63;;
57113;SDS011;42994;51.606;9.988;2023-04-10T14:23:06;4.15;;;3.58;;
57113;SDS011;42994;51.606;9.988;2023-04-10T14:25:33;7.40;;;3.42;;
57113;SDS011;42994;51.606;9.988;2023-04-10T14:27:59;5.05;;;3.90;;
57113;SDS011;42994;51.606;9.988;2023-04-10T14:30:26;6.47;;;3.70;;
57113;SDS011;42994;51.606;9.988;2023-04-10T14:32:54;6.22;;;3.80;;
57113;SDS011;42994;51.606;9.988;2023-04-10T14:35:21;5.45;;;3.28;;
57113;SDS011;42994;51.606;9.988;2023-04-10T14:37:50;5.88;;;3.78;;
57113;SDS011;42994;51.606;9.988;2023-04-10T14:40:16;4.75;;;3.83;;
57113;SDS011;42994;51.606;9.988;2023-04-10T14:42:43;6.55;;;3.10;;
57113;SDS011;42994;51.606;9.988;2023-04-10T14:45:10;4.88;;;3.72;;
57113;SDS011;42994;51.606;9.988;2023-04-10T14:47:36;5.07;;;3.13;;
57113;SDS011;42994;51.606;9.988;2023-04-10T14:50:03;4.20;;;3.50;;
57113;SDS011;42994;51.606;9.988;2023-04-10T14:52:30;3.50;;;3.22;;
57113;SDS011;42994;51.606;9.988;2023-04-10T14:54:58;4.70;;;3.65;;
57113;SDS011;42994;51.606;9.988;2023-04-10T14:57:25;4.57;;;3.92;;
57113;SDS011;42994;51.606;9.988;2023-04-10T14:59:53;4.43;;;3.88;;
57113;SDS011;42994;51.606;9.988;2023-04-10T15:02:20;5.05;;;3.80;;
57113;SDS011;42994;51.606;9.988;2023-04-10T15:04:46;4.45;;;4.05;;
57113;SDS011;42994;51.606;9.988;2023-04-10T15:07:13;4.00;;;3.70;;
57113;SDS011;42994;51.606;9.988;2023-04-10T15:09:40;4.47;;;4.00;;
57113;SDS011;42994;51.606;9.988;2023-04-10T15:12:09;3.22;;;2.92;;
57113;SDS011;42994;51.606;9.988;2023-04-10T15:14:36;5.45;;;3.45;;
57113;SDS011;42994;51.606;9.988;2023-04-10T15:17:02;3.53;;;3.22;;